createdAt,value
2022-12-19T00:01:58.676Z,38.50
2022-12-19T00:04:26.796Z,39.08
2022-12-19T00:06:54.854Z,39.17
2022-12-19T00:09:22.569Z,39.72
2022-12-19T00:11:50.376Z,40.28
2022-12-19T00:14:19.506Z,37.45
2022-12-19T00:16:47.554Z,39.15
2022-12-19T00:19:15.523Z,37.60
2022-12-19T00:21:43.292Z,39.78
2022-12-19T00:24:20.532Z,38.17
2022-12-19T00:26:50.177Z,38.75
2022-12-19T00:29:19.333Z,39.80
2022-12-19T00:31:47.247Z,39.97
2022-12-19T00:34:15.478Z,39.65
2022-12-19T00:36:43.561Z,41.45
2022-12-19T00:39:11.764Z,43.58
2022-12-19T00:41:41.980Z,41.17
2022-12-19T00:44:12.701Z,39.40
2022-12-19T00:46:42.004Z,40.05
2022-12-19T00:49:11.661Z,39.60
2022-12-19T00:51:39.448Z,41.05
2022-12-19T00:54:07.915Z,40.95
2022-12-19T00:56:38.509Z,39.88
2022-12-19T00:59:06.915Z,40.30
2022-12-19T01:01:36.500Z,41.13
2022-12-19T01:06:57.867Z,40.50
2022-12-19T01:09:29.950Z,39.53
2022-12-19T01:12:15.101Z,41.00
2022-12-19T01:14:42.965Z,40.15
2022-12-19T01:17:10.891Z,40.70
2022-12-19T01:19:44.016Z,41.97
2022-12-19T01:22:12.922Z,41.03
2022-12-19T01:24:41.198Z,39.63
2022-12-19T01:27:09.016Z,39.75
2022-12-19T01:29:45.310Z,40.80
2022-12-19T01:32:20.829Z,40.28
2022-12-19T01:34:50.336Z,38.57
2022-12-19T01:37:18.249Z,38.50
2022-12-19T01:39:46.323Z,38.80
2022-12-19T01:42:16.703Z,39.08
2022-12-19T01:45:26.583Z,38.70
2022-12-19T01:48:05.040Z,38.92
2022-12-19T01:50:39.559Z,39.35
2022-12-19T01:53:12.065Z,42.93
2022-12-19T01:55:42.001Z,41.38
2022-12-19T01:58:11.401Z,39.33
2022-12-19T02:00:39.344Z,40.53
2022-12-19T02:03:12.761Z,37.65
2022-12-19T02:05:42.404Z,40.67
2022-12-19T02:08:10.663Z,40.08
2022-12-19T02:10:38.466Z,38.67
2022-12-19T02:13:07.415Z,38.05
2022-12-19T02:15:45.232Z,42.72
2022-12-19T02:18:23.027Z,41.22
2022-12-19T02:21:12.871Z,44.85
2022-12-19T02:24:14.275Z,41.30
2022-12-19T02:27:11.705Z,39.60
2022-12-19T02:30:00.986Z,42.30
2022-12-19T02:32:36.279Z,40.38
2022-12-19T02:35:10.779Z,41.75
2022-12-19T02:37:46.506Z,39.95
2022-12-19T02:40:18.584Z,40.30
2022-12-19T02:42:54.572Z,40.87
2022-12-19T02:45:28.935Z,41.88
2022-12-19T02:48:02.323Z,40.28
2022-12-19T02:50:38.405Z,41.25
2022-12-19T02:53:06.538Z,41.88
2022-12-19T02:55:43.237Z,41.53
2022-12-19T02:58:33.618Z,40.88
2022-12-19T03:01:12.007Z,41.30
2022-12-19T03:03:48.727Z,41.08
2022-12-19T03:06:25.294Z,42.40
2022-12-19T03:09:00.944Z,40.50
2022-12-19T03:11:35.026Z,41.78
2022-12-19T03:14:07.412Z,43.13
2022-12-19T03:16:36.242Z,42.42
2022-12-19T03:19:06.223Z,43.58
2022-12-19T03:21:37.816Z,43.35
2022-12-19T03:24:08.061Z,42.65
2022-12-19T03:26:54.247Z,42.42
2022-12-19T03:29:29.383Z,41.55
2022-12-19T03:31:58.242Z,42.90
2022-12-19T03:34:32.404Z,40.65
2022-12-19T03:37:04.196Z,41.28
2022-12-19T03:39:33.522Z,41.80
2022-12-19T03:42:20.678Z,42.40
2022-12-19T03:44:51.151Z,42.25
2022-12-19T03:47:24.752Z,41.40
2022-12-19T03:49:54.519Z,42.38
2022-12-19T03:52:30.758Z,40.67
2022-12-19T03:55:07.231Z,41.15
2022-12-19T03:57:41.186Z,40.70
2022-12-19T04:00:12.677Z,40.55
2022-12-19T04:02:44.191Z,41.40
2022-12-19T04:05:19.831Z,42.22
2022-12-19T04:07:50.008Z,40.83
2022-12-19T04:10:21.829Z,41.13
2022-12-19T04:12:54.035Z,41.83
2022-12-19T04:15:30.345Z,41.92
2022-12-19T04:17:59.899Z,40.90
2022-12-19T04:20:31.209Z,42.35
2022-12-19T04:23:05.291Z,40.95
2022-12-19T04:25:37.814Z,41.30
2022-12-19T04:28:10.960Z,42.33
2022-12-19T04:30:40.710Z,41.30
2022-12-19T04:33:08.504Z,41.75
2022-12-19T04:35:37.939Z,41.20
2022-12-19T04:38:07.117Z,42.05
2022-12-19T04:40:40.995Z,42.67
2022-12-19T04:43:09.699Z,40.92
2022-12-19T04:45:37.660Z,43.15
2022-12-19T04:48:05.950Z,42.55
2022-12-19T04:50:37.705Z,42.10
2022-12-19T04:53:06.104Z,41.25
2022-12-19T04:55:33.897Z,41.58
2022-12-19T04:58:01.710Z,42.40
2022-12-19T05:00:29.502Z,42.67
2022-12-19T05:02:57.828Z,41.95
2022-12-19T05:05:26.008Z,42.45
2022-12-19T05:07:56.003Z,42.15
2022-12-19T05:10:23.800Z,41.05
2022-12-19T05:12:51.650Z,41.65
2022-12-19T05:15:19.578Z,41.90
2022-12-19T05:17:47.428Z,41.33
2022-12-19T05:20:15.236Z,42.75
2022-12-19T05:22:43.027Z,41.90
2022-12-19T05:25:12.389Z,42.33
2022-12-19T05:27:40.198Z,42.95
2022-12-19T05:30:08.983Z,42.38
2022-12-19T05:32:36.830Z,42.10
2022-12-19T05:35:04.929Z,42.38
2022-12-19T05:37:32.670Z,41.50
2022-12-19T05:40:00.431Z,42.72
2022-12-19T05:42:29.615Z,42.38
2022-12-19T05:44:57.843Z,42.40
2022-12-19T05:47:25.591Z,41.33
2022-12-19T05:49:53.350Z,42.60
2022-12-19T05:52:21.229Z,40.35
2022-12-19T05:54:49.139Z,40.63
2022-12-19T05:57:17.161Z,39.55
2022-12-19T05:59:46.259Z,39.33
2022-12-19T06:02:14.212Z,39.20
2022-12-19T06:04:42.254Z,37.92
2022-12-19T06:07:10.276Z,38.35
2022-12-19T06:09:38.084Z,39.33
2022-12-19T06:12:06.375Z,38.13
2022-12-19T06:14:34.119Z,37.97
2022-12-19T06:17:03.249Z,38.22
2022-12-19T06:19:31.260Z,38.43
2022-12-19T06:21:59.210Z,35.88
2022-12-19T06:24:27.143Z,35.67
2022-12-19T06:26:54.887Z,37.13
2022-12-19T06:29:22.636Z,37.00
2022-12-19T06:31:50.631Z,36.08
2022-12-19T06:34:46.908Z,35.95
2022-12-19T06:37:08.501Z,35.17
2022-12-19T06:39:36.773Z,36.38
2022-12-19T06:42:21.890Z,35.30
2022-12-19T06:44:50.696Z,37.13
2022-12-19T06:47:18.960Z,34.67
2022-12-19T06:49:48.425Z,36.40
2022-12-19T06:52:16.806Z,33.95
2022-12-19T06:54:44.611Z,34.80
2022-12-19T06:57:12.389Z,35.38
2022-12-19T06:59:40.175Z,33.90
2022-12-19T07:02:23.173Z,36.20
2022-12-19T07:04:57.814Z,35.13
2022-12-19T07:07:25.597Z,34.38
2022-12-19T07:09:53.340Z,34.90
2022-12-19T07:12:21.216Z,34.88
2022-12-19T07:14:53.125Z,34.78
2022-12-19T07:17:23.393Z,34.67
2022-12-19T07:19:54.352Z,35.67
2022-12-19T07:22:22.754Z,35.70
2022-12-19T07:24:50.615Z,34.53
2022-12-19T07:27:18.431Z,35.95
2022-12-19T07:29:46.226Z,33.35
2022-12-19T07:32:14.013Z,35.95
2022-12-19T07:34:41.824Z,34.95
2022-12-19T07:37:11.050Z,34.60
2022-12-19T07:39:38.966Z,33.95
2022-12-19T07:42:06.796Z,34.85
2022-12-19T07:44:34.616Z,34.50
2022-12-19T07:47:02.386Z,34.63
2022-12-19T07:49:30.369Z,34.08
2022-12-19T07:51:58.135Z,33.83
2022-12-19T07:54:27.299Z,32.53
2022-12-19T07:56:55.064Z,33.08
2022-12-19T07:59:28.940Z,34.05
2022-12-19T08:01:58.773Z,34.30
2022-12-19T08:04:27.337Z,34.05
2022-12-19T08:06:55.069Z,34.63
2022-12-19T08:09:22.859Z,33.08
2022-12-19T08:11:52.114Z,34.33
2022-12-19T08:14:20.123Z,32.08
2022-12-19T08:17:18.926Z,33.03
2022-12-19T08:19:35.911Z,32.10
2022-12-19T08:22:03.743Z,33.00
2022-12-19T08:24:31.854Z,31.63
2022-12-19T08:27:00.957Z,30.88
2022-12-19T08:29:28.947Z,31.70
2022-12-19T08:31:56.714Z,30.80
2022-12-19T08:34:24.715Z,30.17
2022-12-19T08:36:52.565Z,28.90
2022-12-19T08:39:20.311Z,29.50
2022-12-19T08:41:48.068Z,29.42
2022-12-19T08:44:17.289Z,28.67
2022-12-19T08:46:50.058Z,27.33
2022-12-19T08:49:19.338Z,27.60
2022-12-19T08:51:47.699Z,26.23
2022-12-19T08:54:15.714Z,26.77
2022-12-19T08:56:46.269Z,26.10
2022-12-19T08:59:15.906Z,24.90
2022-12-19T09:01:55.286Z,24.38
2022-12-19T09:05:57.538Z,22.98
2022-12-19T09:07:11.719Z,23.52
2022-12-19T09:09:43.598Z,24.23
2022-12-19T09:12:11.510Z,23.52
2022-12-19T09:14:39.335Z,22.63
2022-12-19T09:17:08.694Z,24.73
2022-12-19T09:19:36.715Z,23.57
2022-12-19T09:22:05.181Z,23.15
2022-12-19T09:24:33.276Z,21.70
2022-12-19T09:27:01.195Z,21.40
2022-12-19T09:29:34.887Z,22.27
2022-12-19T09:32:03.280Z,21.10
2022-12-19T09:34:37.625Z,21.13
2022-12-19T09:37:08.032Z,21.00
2022-12-19T09:39:36.641Z,21.50
2022-12-19T09:42:41.114Z,22.13
2022-12-19T09:45:31.785Z,21.77
2022-12-19T09:48:01.700Z,21.67
2022-12-19T09:50:40.164Z,21.05
2022-12-19T09:53:17.826Z,20.63
2022-12-19T09:55:46.597Z,21.73
2022-12-19T09:58:22.811Z,20.70
2022-12-19T10:00:58.675Z,21.80
2022-12-19T10:03:32.296Z,21.42
2022-12-19T10:07:12.593Z,23.17
2022-12-19T10:11:26.540Z,22.00
2022-12-19T10:12:45.315Z,22.88
2022-12-19T10:15:07.341Z,23.40
2022-12-19T10:17:51.682Z,23.58
2022-12-19T10:20:24.474Z,23.10
2022-12-19T10:23:02.352Z,23.42
2022-12-19T10:25:38.295Z,22.02
2022-12-19T10:28:20.311Z,23.00
2022-12-19T10:30:54.596Z,22.27
2022-12-19T10:33:29.807Z,22.00
2022-12-19T10:36:02.668Z,22.60
2022-12-19T10:38:47.956Z,22.45
2022-12-19T10:41:23.202Z,22.95
2022-12-19T10:43:58.992Z,22.85
2022-12-19T10:46:38.137Z,23.43
2022-12-19T10:49:14.332Z,24.17
2022-12-19T10:51:42.781Z,23.50
2022-12-19T10:54:11.958Z,23.15
2022-12-19T10:56:39.720Z,24.40
2022-12-19T10:59:18.168Z,25.15
2022-12-19T11:01:47.124Z,24.42
2022-12-19T11:04:32.186Z,24.88
2022-12-19T11:07:18.271Z,25.20
2022-12-19T11:10:08.836Z,25.73
2022-12-19T11:18:17.174Z,27.80
2022-12-19T11:18:27.783Z,26.67
2022-12-19T11:28:17.111Z,26.98
2022-12-19T11:29:27.404Z,27.25
2022-12-19T11:29:33.108Z,27.58
2022-12-19T11:30:35.805Z,28.17
2022-12-19T11:32:41.288Z,26.58
2022-12-19T11:35:18.859Z,26.45
2022-12-19T11:37:55.509Z,26.60
2022-12-19T11:40:32.565Z,25.38
2022-12-19T11:46:01.572Z,25.02
2022-12-19T11:48:40.957Z,26.02
2022-12-19T11:51:18.424Z,26.33
2022-12-19T11:53:54.732Z,24.83
2022-12-19T11:56:25.589Z,25.55
2022-12-19T11:58:58.921Z,26.40
2022-12-19T12:01:44.023Z,25.90
2022-12-19T12:04:35.994Z,24.88
2022-12-19T12:07:06.259Z,25.83
2022-12-19T12:14:42.293Z,25.25
2022-12-19T12:24:50.971Z,30.02
2022-12-19T12:26:11.153Z,30.58
2022-12-19T12:31:16.502Z,30.90
2022-12-19T12:31:18.800Z,29.55
2022-12-19T12:31:32.656Z,32.40
2022-12-19T12:31:45.832Z,32.13
2022-12-19T12:32:03.987Z,30.35
2022-12-19T12:35:51.346Z,31.53
2022-12-19T12:39:33.879Z,32.03
2022-12-19T12:42:09.726Z,32.22
2022-12-19T12:44:45.089Z,30.93
2022-12-19T12:47:18.294Z,33.78
2022-12-19T12:49:51.784Z,32.47
2022-12-19T12:52:22.673Z,32.33
2022-12-19T12:54:52.123Z,32.33
2022-12-19T12:57:34.749Z,31.10
2022-12-19T13:00:31.763Z,31.13
2022-12-19T13:03:06.845Z,30.33
2022-12-19T13:06:06.784Z,29.75
2022-12-19T13:08:38.896Z,28.05
2022-12-19T13:11:12.263Z,28.23
2022-12-19T13:13:50.960Z,31.48
2022-12-19T13:16:51.164Z,31.53
2022-12-19T13:19:27.923Z,31.02
2022-12-19T13:22:19.955Z,31.10
2022-12-19T13:24:50.971Z,30.05
2022-12-19T13:27:42.698Z,30.58
2022-12-19T13:30:21.130Z,30.98
2022-12-19T13:33:10.892Z,31.70
2022-12-19T13:37:31.328Z,28.73
2022-12-19T13:40:02.473Z,29.02
2022-12-19T13:41:48.503Z,27.13
2022-12-19T13:44:20.611Z,27.50
2022-12-19T13:46:48.703Z,27.20
2022-12-19T13:49:20.768Z,27.55
2022-12-19T13:51:50.457Z,27.30
2022-12-19T13:54:24.865Z,28.65
2022-12-19T13:56:54.393Z,28.13
2022-12-19T13:59:24.468Z,28.77
2022-12-19T14:01:53.995Z,30.00
2022-12-19T14:04:33.109Z,28.48
2022-12-19T14:07:03.230Z,30.92
2022-12-19T14:11:28.031Z,32.40
2022-12-19T14:14:00.714Z,31.13
2022-12-19T14:15:37.823Z,29.15
2022-12-19T14:18:42.473Z,31.70
2022-12-19T14:22:03.651Z,36.60
2022-12-19T14:24:12.931Z,37.55
2022-12-19T14:28:18.147Z,34.65
2022-12-19T14:30:02.307Z,37.03
2022-12-19T14:33:41.076Z,36.60
2022-12-19T14:36:10.648Z,35.15
2022-12-19T14:39:20.543Z,38.45
2022-12-19T14:41:08.074Z,37.87
2022-12-19T14:44:00.111Z,38.17
2022-12-19T14:53:52.384Z,36.10
2022-12-19T14:54:08.628Z,39.40
2022-12-19T14:54:33.733Z,39.42
2022-12-19T14:56:16.204Z,39.08
2022-12-19T14:58:52.271Z,39.28
2022-12-19T15:01:23.474Z,40.95
2022-12-19T15:04:50.502Z,39.50
2022-12-19T15:07:09.127Z,36.10
2022-12-19T15:10:58.089Z,37.47
2022-12-19T15:14:56.894Z,36.33
2022-12-19T15:15:41.133Z,37.85
2022-12-19T15:18:22.008Z,38.65
2022-12-19T15:20:50.216Z,35.58
2022-12-19T15:23:21.983Z,37.50
2022-12-19T15:26:08.158Z,38.00
2022-12-19T15:28:40.423Z,40.53
2022-12-19T15:31:16.217Z,38.35
2022-12-19T15:34:14.398Z,36.70
2022-12-19T15:36:33.327Z,37.03
2022-12-19T15:39:01.114Z,37.35
2022-12-19T15:41:28.936Z,37.47
2022-12-19T15:44:05.521Z,37.97
2022-12-19T15:46:34.243Z,41.30
2022-12-19T15:49:03.580Z,41.05
2022-12-19T15:51:31.335Z,37.60
2022-12-19T15:54:22.183Z,38.95
2022-12-19T15:56:50.734Z,42.10
2022-12-19T15:59:36.451Z,39.20
2022-12-19T16:02:15.851Z,39.13
2022-12-19T16:04:46.452Z,43.47
2022-12-19T16:07:16.849Z,41.95
2022-12-19T16:09:44.683Z,42.00
2022-12-19T16:12:16.401Z,41.63
2022-12-19T16:14:45.093Z,41.15
2022-12-19T16:17:18.993Z,40.50
2022-12-19T16:19:48.356Z,44.43
2022-12-19T16:22:20.988Z,46.87
2022-12-19T16:24:48.808Z,44.08
2022-12-19T16:27:23.874Z,44.13
2022-12-19T16:29:52.189Z,42.80
2022-12-19T16:32:22.952Z,47.13
2022-12-19T16:34:52.730Z,42.40
2022-12-19T16:37:21.045Z,45.00
2022-12-19T16:39:48.813Z,46.08
2022-12-19T16:42:17.626Z,44.63
2022-12-19T16:44:47.763Z,44.92
2022-12-19T16:47:17.688Z,45.25
2022-12-19T16:49:45.810Z,44.47
2022-12-19T16:52:15.249Z,40.80
2022-12-19T16:54:43.026Z,41.00
2022-12-19T16:57:20.567Z,43.08
2022-12-19T16:59:49.458Z,43.80
2022-12-19T17:02:41.531Z,45.50
2022-12-19T17:05:20.379Z,47.72
2022-12-19T17:07:49.998Z,44.17
2022-12-19T17:10:22.790Z,42.20
2022-12-19T17:12:54.242Z,41.87
2022-12-19T17:15:28.024Z,43.80
2022-12-19T17:17:57.939Z,41.10
2022-12-19T17:20:28.337Z,48.58
2022-12-19T17:22:57.708Z,45.05
2022-12-19T17:25:27.411Z,44.50
2022-12-19T17:27:56.543Z,43.17
2022-12-19T17:30:24.491Z,39.97
2022-12-19T17:32:55.565Z,42.05
2022-12-19T17:35:28.189Z,41.28
2022-12-19T17:37:59.379Z,44.33
2022-12-19T17:40:30.840Z,43.03
2022-12-19T17:42:59.464Z,42.13
2022-12-19T17:45:29.562Z,43.13
2022-12-19T17:48:03.113Z,44.53
2022-12-19T17:50:35.494Z,42.60
2022-12-19T17:53:04.688Z,45.63
2022-12-19T17:55:33.292Z,42.25
2022-12-19T17:58:01.087Z,41.80
2022-12-19T18:00:31.977Z,47.47
2022-12-19T18:03:04.500Z,43.75
2022-12-19T18:05:35.918Z,44.03
2022-12-19T18:08:17.288Z,44.40
2022-12-19T18:10:45.172Z,43.70
2022-12-19T18:13:12.919Z,46.25
2022-12-19T18:15:41.602Z,45.35
2022-12-19T18:18:14.174Z,43.97
2022-12-19T18:20:43.642Z,41.38
2022-12-19T18:23:17.401Z,38.97
2022-12-19T18:25:45.671Z,36.47
2022-12-19T18:28:14.061Z,36.22
2022-12-19T18:30:42.445Z,34.90
2022-12-19T18:33:16.579Z,35.33
2022-12-19T18:35:47.397Z,34.35
2022-12-19T18:38:18.315Z,33.22
2022-12-19T18:40:46.647Z,31.85
2022-12-19T18:43:15.224Z,28.70
2022-12-19T18:45:44.910Z,27.70
2022-12-19T18:48:18.340Z,28.55
2022-12-19T18:50:46.108Z,33.58
2022-12-19T18:53:17.958Z,30.30
2022-12-19T18:55:46.359Z,28.20
2022-12-19T18:58:14.280Z,27.55
2022-12-19T19:00:42.480Z,26.08
2022-12-19T19:03:15.631Z,24.57
2022-12-19T19:05:44.073Z,23.83
2022-12-19T19:08:19.869Z,23.58
2022-12-19T19:10:49.475Z,22.67
2022-12-19T19:13:19.075Z,24.52
2022-12-19T19:15:49.483Z,22.48
2022-12-19T19:18:20.838Z,22.95
2022-12-19T19:20:55.635Z,21.77
2022-12-19T19:23:31.555Z,23.52
2022-12-19T19:25:59.439Z,21.60
2022-12-19T19:28:27.168Z,22.25
2022-12-19T19:30:55.786Z,20.58
2022-12-19T19:33:26.775Z,22.27
2022-12-19T19:35:58.766Z,22.95
2022-12-19T19:38:28.240Z,21.67
2022-12-19T19:40:56.025Z,21.63
2022-12-19T19:43:23.979Z,22.83
2022-12-19T19:45:52.214Z,20.20
2022-12-19T19:48:20.038Z,21.75
2022-12-19T19:50:49.184Z,19.92
2022-12-19T19:53:16.935Z,20.92
2022-12-19T19:55:46.145Z,20.45
2022-12-19T19:58:13.989Z,20.38
2022-12-19T20:00:42.966Z,20.40
2022-12-19T20:03:12.872Z,21.50
2022-12-19T20:05:43.094Z,19.85
2022-12-19T20:08:11.002Z,20.40
2022-12-19T20:10:38.929Z,19.23
2022-12-19T20:13:09.335Z,19.88
2022-12-19T20:15:37.140Z,18.70
2022-12-19T20:18:05.031Z,18.85
2022-12-19T20:20:34.144Z,20.33
2022-12-19T20:23:02.438Z,21.13
2022-12-19T20:25:30.156Z,20.33
2022-12-19T20:27:58.053Z,19.63
2022-12-19T20:30:27.202Z,20.90
2022-12-19T20:32:55.797Z,19.85
2022-12-19T20:35:23.708Z,20.95
2022-12-19T20:37:51.506Z,19.23
2022-12-19T20:40:19.463Z,18.55
2022-12-19T20:42:47.285Z,20.83
2022-12-19T20:45:15.140Z,20.83
2022-12-19T20:47:44.268Z,20.05
2022-12-19T20:50:13.103Z,19.85
2022-12-19T20:52:40.881Z,24.02
2022-12-19T20:55:10.621Z,23.15
2022-12-19T20:57:38.453Z,26.98
2022-12-19T21:00:08.775Z,21.17
2022-12-19T21:03:00.629Z,22.40
2022-12-19T21:05:25.809Z,23.50
2022-12-19T21:07:53.697Z,24.55
2022-12-19T21:10:21.442Z,22.75
2022-12-19T21:12:49.247Z,23.27
2022-12-19T21:15:17.592Z,29.88
2022-12-19T21:17:45.517Z,30.65
2022-12-19T21:20:15.889Z,28.93
2022-12-19T21:22:45.004Z,23.80
2022-12-19T21:25:12.894Z,25.50
2022-12-19T21:27:40.706Z,25.38
2022-12-19T21:30:10.154Z,25.13
2022-12-19T21:32:37.920Z,25.45
2022-12-19T21:35:06.320Z,23.67
2022-12-19T21:37:39.813Z,24.90
2022-12-19T21:40:13.269Z,23.48
2022-12-19T21:42:41.031Z,28.08
2022-12-19T21:45:10.151Z,28.08
2022-12-19T21:47:39.723Z,25.90
2022-12-19T21:50:08.958Z,25.30
2022-12-19T21:52:36.973Z,24.35
2022-12-19T21:55:05.177Z,23.38
2022-12-19T21:57:34.600Z,25.20
2022-12-19T22:00:03.727Z,26.15
2022-12-19T22:02:31.583Z,24.97
2022-12-19T22:04:59.559Z,25.42
2022-12-19T22:07:27.345Z,25.00
2022-12-19T22:09:55.126Z,24.60
2022-12-19T22:12:23.041Z,25.90
2022-12-19T22:14:52.280Z,25.70
2022-12-19T22:17:20.105Z,27.95
2022-12-19T22:19:47.895Z,27.35
2022-12-19T22:22:15.634Z,28.55
2022-12-19T22:24:43.557Z,26.70
2022-12-19T22:27:11.422Z,29.48
2022-12-19T22:29:39.547Z,26.05
2022-12-19T22:32:08.788Z,26.52
2022-12-19T22:34:36.557Z,24.63
2022-12-19T22:37:04.569Z,24.40
2022-12-19T22:39:32.371Z,23.67
2022-12-19T22:42:00.199Z,24.38
2022-12-19T22:44:27.974Z,23.08
2022-12-19T22:46:55.771Z,24.23
2022-12-19T22:49:24.912Z,26.07
2022-12-19T22:51:52.659Z,25.73
2022-12-19T22:54:20.431Z,24.98
2022-12-19T22:56:51.005Z,24.67
2022-12-19T22:59:18.828Z,25.15
2022-12-19T23:01:46.739Z,24.75
2022-12-19T23:04:17.373Z,26.88
2022-12-19T23:06:46.754Z,25.55
2022-12-19T23:09:17.018Z,23.23
2022-12-19T23:11:46.853Z,23.02
2022-12-19T23:14:17.537Z,23.35
2022-12-19T23:16:45.515Z,27.33
2022-12-19T23:19:14.835Z,23.65
2022-12-19T23:21:42.597Z,23.40
2022-12-19T23:24:12.715Z,24.55
2022-12-19T23:26:40.982Z,24.50
2022-12-19T23:29:13.931Z,25.42
2022-12-19T23:31:42.883Z,23.40
2022-12-19T23:34:11.358Z,23.02
2022-12-19T23:39:28.682Z,22.90
2022-12-19T23:41:56.501Z,23.25
2022-12-19T23:44:24.554Z,22.85
2022-12-19T23:46:53.218Z,22.58
2022-12-19T23:49:23.287Z,22.55
2022-12-19T23:51:51.034Z,22.70
2022-12-19T23:54:18.848Z,22.67
2022-12-19T23:56:49.444Z,21.20
2022-12-19T23:59:17.263Z,20.40
